Time;durP1;ratioP1;P1;durP2;ratioP2;P2;SDS_P1;SDS_P2;PMS_P1;PMS_P2;Temp;Humidity;BMP_temperature;BMP_pressure;BME280_temperature;BME280_humidity;BME280_pressure;Samples;Min_cycle;Max_cycle;Signal;HPM_P1;HPM_P2
2022/07/26 00:02:16;;;;;;;;;;;;;;;;;;5030197;28;20383;-78
2022/07/26 00:05:03;;;;;;;;;;;;;;;;;;5025890;28;19913;-78
2022/07/26 00:07:49;;;;;;;;;;;;;;;;;;5012946;28;19916;-78
2022/07/26 00:10:36;;;;;;;;;;;;;;;;;;5026387;28;19924;-76
2022/07/26 00:13:22;;;;;;;;;;;;;;;;;;5024172;28;19935;-78
2022/07/26 00:16:09;;;;;;;;;;;;;;;;;;5024541;28;19913;-78
2022/07/26 00:18:55;;;;;;;;;;;;;;;;;;5028684;28;20045;-77
2022/07/26 00:21:42;;;;;;;;;;;;;;;;;;5021306;28;19928;-76
2022/07/26 00:24:28;;;;;;;;;;;;;;;;;;5022715;28;19916;-79
2022/07/26 00:27:15;;;;;;;;;;;;;;;;;;5022238;28;19924;-76
2022/07/26 00:30:01;;;;;;;;;;;;;;;;;;5020760;28;19909;-76
2022/07/26 00:32:47;;;;;;;;;;;;;;;;;;5027958;28;19921;-77
2022/07/26 00:35:34;;;;;;;;;;;;;;;;;;5026205;28;19920;-76
2022/07/26 00:38:20;;;;;;;;;;;;;;;;;;5018925;28;19925;-77
2022/07/26 00:41:08;;;;;;;;;;;;;;;;;;5029378;28;19919;-77
2022/07/26 00:43:54;;;;;;;;;;;;;;;;;;5019384;28;20697;-77
2022/07/26 00:46:40;;;;;;;;;;;;;;;;;;5027713;28;20478;-77
2022/07/26 00:49:27;;;;;;;;;;;;;;;;;;5028679;28;19913;-77
2022/07/26 00:52:13;;;;;;;;;;;;;;;;;;5022347;28;20280;-76
2022/07/26 00:55:00;;;;;;;;;;;;;;;;;;5020617;28;20376;-77
2022/07/26 00:57:46;;;;;;;;;;;;;;;;;;5021165;28;19929;-77
2022/07/26 01:00:33;;;;;;;;;;;;;;;;;;5024124;28;19924;-77
2022/07/26 01:03:19;;;;;;;;;;;;;;;;;;5013212;28;19909;-77
2022/07/26 01:06:06;;;;;;;;;;;;;;;;;;5022681;28;19920;-76
2022/07/26 01:08:52;;;;;;;;;;;;;;;;;;5023828;28;20396;-77
2022/07/26 01:11:39;;;;;;;;;;;;;;;;;;5018511;28;20269;-77
2022/07/26 01:14:25;;;;;;;;;;;;;;;;;;5025652;28;19924;-77
2022/07/26 01:17:12;;;;;;;;;;;;;;;;;;5023179;28;19928;-77
2022/07/26 01:19:58;;;;;;;;;;;;;;;;;;5014213;28;19937;-76
2022/07/26 01:22:45;;;;;;;;;;;;;;;;;;5022545;28;19909;-77
2022/07/26 01:25:31;;;;;;;;;;;;;;;;;;5020178;28;19928;-77
2022/07/26 01:28:18;;;;;;;;;;;;;;;;;;5018028;28;19921;-77
2022/07/26 01:31:04;;;;;;;;;;;;;;;;;;5021464;28;19916;-77
2022/07/26 01:33:51;;;;;;;;;;;;;;;;;;5022791;28;19909;-76
2022/07/26 01:36:37;;;;;;;;;;;;;;;;;;5026413;28;19920;-77
2022/07/26 01:39:23;;;;;;;;;;;;;;;;;;5024018;28;20384;-76
2022/07/26 01:42:10;;;;;;;;;;;;;;;;;;5025857;28;20041;-77
2022/07/26 01:44:56;;;;;;;;;;;;;;;;;;5019736;28;19913;-75
2022/07/26 01:47:48;;;;;;;;;;;;;;;;;;5029533;28;19913;-76
2022/07/26 01:50:35;;;;;;;;;;;;;;;;;;5025681;28;19916;-75
2022/07/26 01:53:21;;;;;;;;;;;;;;;;;;5026035;28;19916;-75
2022/07/26 01:56:08;;;;;;;;;;;;;;;;;;5016601;28;19936;-75
2022/07/26 01:58:54;;;;;;;;;;;;;;;;;;5021494;28;19921;-76
2022/07/26 02:01:41;;;;;;;;;;;;;;;;;;5025367;28;19913;-76
2022/07/26 02:07:32;;;;;;;;;;;;;;;;;;5024617;28;19928;-76
2022/07/26 02:10:19;;;;;;;;;;;;;;;;;;5015275;28;19913;-77
2022/07/26 02:13:05;;;;;;;;;;;;;;;;;;5026155;28;19921;-77
2022/07/26 02:15:52;;;;;;;;;;;;;;;;;;5022969;28;19924;-78
2022/07/26 02:18:41;;;;;;;;;;;;;;;;;;5023119;28;20305;-77
2022/07/26 02:21:28;;;;;;;;;;;;;;;;;;5017170;28;20362;-77
2022/07/26 02:24:14;;;;;;;;;;;;;;;;;;5020570;28;19920;-77
2022/07/26 02:27:01;;;;;;;;;;;;;;;;;;5024652;28;20389;-77
2022/07/26 02:29:47;;;;;;;;;;;;;;;;;;5015525;28;19921;-78
2022/07/26 02:32:34;;;;;;;;;;;;;;;;;;5013231;28;19909;-77
2022/07/26 02:35:20;;;;;;;;;;;;;;;;;;5022995;28;19921;-78
2022/07/26 02:38:07;;;;;;;;;;;;;;;;;;5024838;28;19925;-77
2022/07/26 02:40:53;;;;;;;;;;;;;;;;;;5026805;28;19920;-77
2022/07/26 02:43:39;;;;;;;;;;;;;;;;;;5026889;28;19916;-77
2022/07/26 02:46:26;;;;;;;;;;;;;;;;;;5014580;28;19916;-77
2022/07/26 02:49:12;;;;;;;;;;;;;;;;;;5023299;28;19933;-77
2022/07/26 02:51:59;;;;;;;;;;;;;;;;;;5021749;28;19936;-77
2022/07/26 02:54:45;;;;;;;;;;;;;;;;;;5019672;28;19909;-77
2022/07/26 02:57:32;;;;;;;;;;;;;;;;;;5014186;28;20535;-78
2022/07/26 03:00:18;;;;;;;;;;;;;;;;;;5023645;28;19909;-77
2022/07/26 03:03:05;;;;;;;;;;;;;;;;;;5017949;28;19920;-76
2022/07/26 03:05:51;;;;;;;;;;;;;;;;;;5020630;28;19915;-76
2022/07/26 03:08:38;;;;;;;;;;;;;;;;;;5024937;28;19920;-77
2022/07/26 03:11:24;;;;;;;;;;;;;;;;;;5026126;28;19924;-77
2022/07/26 03:14:11;;;;;;;;;;;;;;;;;;5012929;28;19922;-77
2022/07/26 03:16:57;;;;;;;;;;;;;;;;;;5010703;28;19917;-77
2022/07/26 03:19:44;;;;;;;;;;;;;;;;;;5014219;28;19917;-79
2022/07/26 03:22:30;;;;;;;;;;;;;;;;;;5031839;28;19913;-78
2022/07/26 03:25:17;;;;;;;;;;;;;;;;;;5016037;28;19913;-78
2022/07/26 03:28:08;;;;;;;;;;;;;;;;;;5020706;28;19914;-78
2022/07/26 03:34:01;;;;;;;;;;;;;;;;;;5014317;28;19913;-77
2022/07/26 03:36:48;;;;;;;;;;;;;;;;;;5015847;28;20645;-78
2022/07/26 03:39:36;;;;;;;;;;;;;;;;;;5020344;28;20400;-78
2022/07/26 03:42:23;;;;;;;;;;;;;;;;;;5014147;28;20021;-78
2022/07/26 03:45:09;;;;;;;;;;;;;;;;;;5017425;28;19920;-78
2022/07/26 03:47:56;;;;;;;;;;;;;;;;;;5022978;28;19909;-78
2022/07/26 03:50:42;;;;;;;;;;;;;;;;;;5024877;28;19997;-79
2022/07/26 03:53:29;;;;;;;;;;;;;;;;;;5028957;28;20572;-78
2022/07/26 03:56:27;;;;;;;;;;;;;;;;;;5014759;28;19913;-78
2022/07/26 03:59:14;;;;;;;;;;;;;;;;;;5018489;28;19925;-78
2022/07/26 04:02:00;;;;;;;;;;;;;;;;;;5031412;28;20388;-78
2022/07/26 04:04:47;;;;;;;;;;;;;;;;;;5017506;28;19920;-78
2022/07/26 04:07:33;;;;;;;;;;;;;;;;;;5025280;28;19913;-79
2022/07/26 04:10:19;;;;;;;;;;;;;;;;;;5028339;28;20061;-78
2022/07/26 04:13:06;;;;;;;;;;;;;;;;;;5029671;28;19936;-78
2022/07/26 04:15:52;;;;;;;;;;;;;;;;;;5030502;28;19917;-79
2022/07/26 04:18:41;;;;;;;;;;;;;;;;;;5020059;28;19918;-78
2022/07/26 04:21:27;;;;;;;;;;;;;;;;;;5013830;28;19936;-78
2022/07/26 04:24:14;;;;;;;;;;;;;;;;;;5023132;28;19921;-78
2022/07/26 04:27:00;;;;;;;;;;;;;;;;;;5021504;28;19909;-78
2022/07/26 04:29:46;;;;;;;;;;;;;;;;;;5022226;28;19910;-78
2022/07/26 04:32:33;;;;;;;;;;;;;;;;;;5019227;28;19936;-78
2022/07/26 04:35:19;;;;;;;;;;;;;;;;;;5029196;28;19913;-78
2022/07/26 04:38:06;;;;;;;;;;;;;;;;;;5023610;28;19920;-77
2022/07/26 04:40:53;;;;;;;;;;;;;;;;;;5027743;28;19924;-78
2022/07/26 04:43:40;;;;;;;;;;;;;;;;;;5035950;28;19913;-78
2022/07/26 04:46:26;;;;;;;;;;;;;;;;;;5030512;28;19912;-78
2022/07/26 04:49:13;;;;;;;;;;;;;;;;;;5030782;28;20080;-78
2022/07/26 04:51:59;;;;;;;;;;;;;;;;;;5022625;28;19937;-78
2022/07/26 04:54:46;;;;;;;;;;;;;;;;;;5029910;28;19909;-78
2022/07/26 04:57:32;;;;;;;;;;;;;;;;;;5033242;28;19917;-79
2022/07/26 05:00:20;;;;;;;;;;;;;;;;;;5035645;28;19910;-79
2022/07/26 05:03:07;;;;;;;;;;;;;;;;;;5030935;28;19909;-78
2022/07/26 05:05:53;;;;;;;;;;;;;;;;;;5032272;28;19917;-78
2022/07/26 05:08:42;;;;;;;;;;;;;;;;;;5039331;28;19909;-78
2022/07/26 05:11:28;;;;;;;;;;;;;;;;;;5042795;28;20619;-78
2022/07/26 05:14:14;;;;;;;;;;;;;;;;;;5035048;28;19929;-77
2022/07/26 05:17:01;;;;;;;;;;;;;;;;;;5031359;28;19910;-78
2022/07/26 05:19:47;;;;;;;;;;;;;;;;;;5024224;28;19948;-78
2022/07/26 05:22:34;;;;;;;;;;;;;;;;;;5019213;28;19915;-78
2022/07/26 05:25:20;;;;;;;;;;;;;;;;;;5020563;28;19920;-78
2022/07/26 05:28:07;;;;;;;;;;;;;;;;;;5015299;28;20685;-78
2022/07/26 05:30:53;;;;;;;;;;;;;;;;;;5021026;28;19921;-76
2022/07/26 05:33:40;;;;;;;;;;;;;;;;;;5040298;28;19917;-77
2022/07/26 05:36:26;;;;;;;;;;;;;;;;;;5033634;28;19913;-78
2022/07/26 05:39:13;;;;;;;;;;;;;;;;;;5045795;28;19924;-78
2022/07/26 05:41:59;;;;;;;;;;;;;;;;;;5034172;28;19909;-77
2022/07/26 05:44:45;;;;;;;;;;;;;;;;;;5039781;28;19913;-77
2022/07/26 05:47:32;;;;;;;;;;;;;;;;;;5027273;28;19924;-77
2022/07/26 05:50:18;;;;;;;;;;;;;;;;;;5019794;28;19916;-77
2022/07/26 05:53:05;;;;;;;;;;;;;;;;;;5025514;28;19913;-77
2022/07/26 05:55:51;;;;;;;;;;;;;;;;;;5024677;28;19935;-77
2022/07/26 05:58:38;;;;;;;;;;;;;;;;;;5012119;28;19925;-77
2022/07/26 06:01:24;;;;;;;;;;;;;;;;;;5018254;28;19918;-77
2022/07/26 06:04:11;;;;;;;;;;;;;;;;;;5023149;28;19909;-78
2022/07/26 06:06:58;;;;;;;;;;;;;;;;;;5022872;28;19928;-78
2022/07/26 06:09:44;;;;;;;;;;;;;;;;;;5031962;28;20380;-77
2022/07/26 06:12:31;;;;;;;;;;;;;;;;;;5018469;28;19917;-78
2022/07/26 06:15:17;;;;;;;;;;;;;;;;;;5022245;28;19917;-78
2022/07/26 06:18:04;;;;;;;;;;;;;;;;;;5017002;28;19925;-78
2022/07/26 06:20:50;;;;;;;;;;;;;;;;;;5017632;28;20282;-77
2022/07/26 06:23:37;;;;;;;;;;;;;;;;;;5013384;28;20407;-78
2022/07/26 06:26:23;;;;;;;;;;;;;;;;;;5013562;28;20442;-77
2022/07/26 06:29:10;;;;;;;;;;;;;;;;;;5031008;28;19916;-77
2022/07/26 06:31:56;;;;;;;;;;;;;;;;;;5030488;28;19916;-76
2022/07/26 06:34:43;;;;;;;;;;;;;;;;;;5024186;28;20420;-78
2022/07/26 06:37:29;;;;;;;;;;;;;;;;;;5023660;28;19944;-76
2022/07/26 06:40:16;;;;;;;;;;;;;;;;;;5024148;28;20380;-77
2022/07/26 06:43:02;;;;;;;;;;;;;;;;;;5021144;28;19927;-78
2022/07/26 06:45:49;;;;;;;;;;;;;;;;;;5017839;28;19910;-77
2022/07/26 06:48:35;;;;;;;;;;;;;;;;;;5020021;28;19916;-77
2022/07/26 06:51:22;;;;;;;;;;;;;;;;;;5021810;28;19929;-76
2022/07/26 06:54:08;;;;;;;;;;;;;;;;;;5021295;28;20372;-76
2022/07/26 06:56:55;;;;;;;;;;;;;;;;;;5035045;28;19913;-76
2022/07/26 06:59:41;;;;;;;;;;;;;;;;;;5013246;28;19921;-76
2022/07/26 07:02:28;;;;;;;;;;;;;;;;;;5031517;28;19936;-77
2022/07/26 07:05:14;;;;;;;;;;;;;;;;;;5025471;28;19924;-76
2022/07/26 07:08:01;;;;;;;;;;;;;;;;;;5018844;28;19920;-76
2022/07/26 07:10:47;;;;;;;;;;;;;;;;;;5020809;28;20259;-76
2022/07/26 07:13:34;;;;;;;;;;;;;;;;;;5024903;28;19925;-76
2022/07/26 07:16:20;;;;;;;;;;;;;;;;;;5013620;28;20396;-77
2022/07/26 07:19:07;;;;;;;;;;;;;;;;;;5028338;28;19928;-76
2022/07/26 07:21:53;;;;;;;;;;;;;;;;;;5029622;28;20521;-76
2022/07/26 07:24:40;;;;;;;;;;;;;;;;;;5026731;28;19916;-76
2022/07/26 07:27:26;;;;;;;;;;;;;;;;;;5027044;28;19924;-78
2022/07/26 07:30:15;;;;;;;;;;;;;;;;;;5023690;28;19920;-77
2022/07/26 07:33:02;;;;;;;;;;;;;;;;;;5025157;28;19935;-76
2022/07/26 07:35:48;;;;;;;;;;;;;;;;;;5025570;28;19913;-76
2022/07/26 07:38:35;;;;;;;;;;;;;;;;;;5027559;28;19933;-77
2022/07/26 07:41:21;;;;;;;;;;;;;;;;;;5025778;28;19913;-76
2022/07/26 07:44:08;;;;;;;;;;;;;;;;;;5029610;28;19920;-77
2022/07/26 07:46:54;;;;;;;;;;;;;;;;;;5024527;28;19921;-76
2022/07/26 07:49:41;;;;;;;;;;;;;;;;;;5027089;28;19909;-77
2022/07/26 07:52:27;;;;;;;;;;;;;;;;;;5025771;28;20026;-77
2022/07/26 07:55:14;;;;;;;;;;;;;;;;;;5026373;28;19917;-77
2022/07/26 07:58:00;;;;;;;;;;;;;;;;;;5026414;28;19924;-77
2022/07/26 08:00:47;;;;;;;;;;;;;;;;;;5027230;28;19913;-76
2022/07/26 08:03:33;;;;;;;;;;;;;;;;;;5023752;28;19910;-78
2022/07/26 08:06:19;;;;;;;;;;;;;;;;;;5024743;28;19924;-77
2022/07/26 08:09:09;;;;;;;;;;;;;;;;;;5028743;28;19917;-77
2022/07/26 08:11:55;;;;;;;;;;;;;;;;;;5026770;28;19920;-78
2022/07/26 08:14:42;;;;;;;;;;;;;;;;;;5024660;28;19925;-76
2022/07/26 08:17:28;;;;;;;;;;;;;;;;;;5028277;28;19920;-77
2022/07/26 08:20:15;;;;;;;;;;;;;;;;;;5025256;28;19917;-78
2022/07/26 08:23:01;;;;;;;;;;;;;;;;;;5028367;28;19917;-78
2022/07/26 08:25:48;;;;;;;;;;;;;;;;;;5022173;28;19917;-79
2022/07/26 08:28:34;;;;;;;;;;;;;;;;;;5024034;28;19927;-80
2022/07/26 08:31:21;;;;;;;;;;;;;;;;;;5024599;28;20281;-80
2022/07/26 08:34:07;;;;;;;;;;;;;;;;;;5026052;28;19913;-79
2022/07/26 08:36:54;;;;;;;;;;;;;;;;;;5025221;28;20306;-80
2022/07/26 08:39:40;;;;;;;;;;;;;;;;;;5023378;28;19925;-80
2022/07/26 08:42:27;;;;;;;;;;;;;;;;;;5025806;28;20369;-80
2022/07/26 08:45:13;;;;;;;;;;;;;;;;;;5027516;28;19909;-80
2022/07/26 08:48:00;;;;;;;;;;;;;;;;;;5022042;28;20400;-79
2022/07/26 08:50:47;;;;;;;;;;;;;;;;;;5024095;28;19920;-78
2022/07/26 08:53:33;;;;;;;;;;;;;;;;;;5026556;28;20023;-78
2022/07/26 08:56:19;;;;;;;;;;;;;;;;;;5025040;28;19916;-78
2022/07/26 08:59:06;;;;;;;;;;;;;;;;;;5025619;28;19918;-78
2022/07/26 09:01:52;;;;;;;;;;;;;;;;;;5025811;28;20341;-78
2022/07/26 09:04:39;;;;;;;;;;;;;;;;;;5025339;28;19915;-76
2022/07/26 09:07:25;;;;;;;;;;;;;;;;;;5026083;28;19909;-76
2022/07/26 09:10:12;;;;;;;;;;;;;;;;;;5023122;28;20266;-77
2022/07/26 09:12:58;;;;;;;;;;;;;;;;;;5025480;28;19923;-78
2022/07/26 09:15:45;;;;;;;;;;;;;;;;;;5025768;28;19932;-79
2022/07/26 09:18:31;;;;;;;;;;;;;;;;;;5026319;28;19923;-78
2022/07/26 09:21:18;;;;;;;;;;;;;;;;;;5017041;28;19921;-78
2022/07/26 09:24:04;;;;;;;;;;;;;;;;;;5021902;28;19992;-78
2022/07/26 09:26:51;;;;;;;;;;;;;;;;;;5021571;28;19941;-78
2022/07/26 09:29:37;;;;;;;;;;;;;;;;;;5022355;28;19920;-78
2022/07/26 09:32:24;;;;;;;;;;;;;;;;;;5023517;28;19932;-78
2022/07/26 09:35:10;;;;;;;;;;;;;;;;;;5021191;28;19917;-79
2022/07/26 09:37:57;;;;;;;;;;;;;;;;;;5018793;28;20628;-79
2022/07/26 09:40:43;;;;;;;;;;;;;;;;;;5024138;28;20552;-78
2022/07/26 09:43:30;;;;;;;;;;;;;;;;;;5024973;28;19917;-79
2022/07/26 09:46:16;;;;;;;;;;;;;;;;;;5026420;28;20281;-79
2022/07/26 09:49:03;;;;;;;;;;;;;;;;;;5021534;28;19956;-78
2022/07/26 09:51:49;;;;;;;;;;;;;;;;;;5021315;28;19916;-78
2022/07/26 09:54:36;;;;;;;;;;;;;;;;;;5023691;28;19936;-78
2022/07/26 09:57:24;;;;;;;;;;;;;;;;;;5022182;28;19917;-79
2022/07/26 10:00:11;;;;;;;;;;;;;;;;;;5023021;28;19935;-77
2022/07/26 10:02:57;;;;;;;;;;;;;;;;;;5022187;28;19917;-77
2022/07/26 10:05:44;;;;;;;;;;;;;;;;;;5020303;28;20344;-77
2022/07/26 10:08:30;;;;;;;;;;;;;;;;;;5026630;28;19924;-77
2022/07/26 10:11:17;;;;;;;;;;;;;;;;;;5024434;28;20004;-77
2022/07/26 10:14:03;;;;;;;;;;;;;;;;;;5039144;28;20401;-77
2022/07/26 10:16:50;;;;;;;;;;;;;;;;;;5019016;28;20424;-78
2022/07/26 10:19:36;;;;;;;;;;;;;;;;;;5022799;28;19932;-78
2022/07/26 10:22:23;;;;;;;;;;;;;;;;;;5022685;28;20750;-77
2022/07/26 10:25:09;;;;;;;;;;;;;;;;;;5022042;28;20463;-77
2022/07/26 10:27:58;;;;;;;;;;;;;;;;;;5025550;28;19928;-79
2022/07/26 10:30:45;;;;;;;;;;;;;;;;;;5025694;28;19924;-78
2022/07/26 10:33:31;;;;;;;;;;;;;;;;;;5024792;28;19920;-79
2022/07/26 10:36:18;;;;;;;;;;;;;;;;;;5023342;28;19925;-78
2022/07/26 10:39:04;;;;;;;;;;;;;;;;;;5023073;28;19932;-78
2022/07/26 10:41:51;;;;;;;;;;;;;;;;;;5025143;28;19917;-76
2022/07/26 10:44:38;;;;;;;;;;;;;;;;;;5019639;28;20266;-76
2022/07/26 10:47:24;;;;;;;;;;;;;;;;;;5020070;28;19932;-76
2022/07/26 10:50:11;;;;;;;;;;;;;;;;;;5022631;28;19909;-78
2022/07/26 10:52:57;;;;;;;;;;;;;;;;;;5023657;28;19924;-76
2022/07/26 10:55:44;;;;;;;;;;;;;;;;;;5019812;28;19921;-76
2022/07/26 10:58:30;;;;;;;;;;;;;;;;;;5015265;28;19924;-76
2022/07/26 11:01:17;;;;;;;;;;;;;;;;;;5025014;28;19917;-77
2022/07/26 11:04:03;;;;;;;;;;;;;;;;;;5024474;28;20361;-77
2022/07/26 11:06:50;;;;;;;;;;;;;;;;;;5013992;28;19921;-76
2022/07/26 11:09:36;;;;;;;;;;;;;;;;;;5021317;28;19917;-76
2022/07/26 11:12:23;;;;;;;;;;;;;;;;;;5021251;28;19923;-75
2022/07/26 11:15:09;;;;;;;;;;;;;;;;;;5022565;28;19921;-76
2022/07/26 11:17:55;;;;;;;;;;;;;;;;;;5013808;28;19921;-76
2022/07/26 11:20:42;;;;;;;;;;;;;;;;;;5020151;28;19917;-76
2022/07/26 11:23:28;;;;;;;;;;;;;;;;;;5025122;28;20384;-76
2022/07/26 11:26:15;;;;;;;;;;;;;;;;;;5022402;28;19921;-77
2022/07/26 11:29:01;;;;;;;;;;;;;;;;;;5018627;28;19924;-77
2022/07/26 11:31:48;;;;;;;;;;;;;;;;;;5024869;28;20297;-77
2022/07/26 11:34:35;;;;;;;;;;;;;;;;;;5020426;28;20012;-75
2022/07/26 11:37:21;;;;;;;;;;;;;;;;;;5021052;28;19936;-75
2022/07/26 11:40:07;;;;;;;;;;;;;;;;;;5024344;28;19932;-76
2022/07/26 11:42:54;;;;;;;;;;;;;;;;;;5017974;28;19919;-76
2022/07/26 11:45:40;;;;;;;;;;;;;;;;;;5023267;28;20387;-76
2022/07/26 11:48:27;;;;;;;;;;;;;;;;;;5020291;28;19920;-77
2022/07/26 11:51:13;;;;;;;;;;;;;;;;;;5018775;28;20369;-77
2022/07/26 11:54:00;;;;;;;;;;;;;;;;;;5021261;28;20024;-76
2022/07/26 11:56:46;;;;;;;;;;;;;;;;;;5019006;28;19916;-77
2022/07/26 11:59:33;;;;;;;;;;;;;;;;;;5016769;28;19929;-77
2022/07/26 12:02:19;;;;;;;;;;;;;;;;;;5018689;28;19913;-77
2022/07/26 12:05:06;;;;;;;;;;;;;;;;;;5025350;28;19910;-76
2022/07/26 12:07:52;;;;;;;;;;;;;;;;;;5023086;28;20626;-77
2022/07/26 12:10:39;;;;;;;;;;;;;;;;;;5023363;28;19936;-77
2022/07/26 12:13:25;;;;;;;;;;;;;;;;;;5022961;28;19932;-77
2022/07/26 12:16:12;;;;;;;;;;;;;;;;;;5027184;28;20693;-76
2022/07/26 12:18:59;;;;;;;;;;;;;;;;;;5025539;28;19925;-76
2022/07/26 12:21:45;;;;;;;;;;;;;;;;;;5026632;28;19925;-76
2022/07/26 12:24:32;;;;;;;;;;;;;;;;;;5022832;28;19909;-78
2022/07/26 12:27:18;;;;;;;;;;;;;;;;;;5026678;28;19913;-77
2022/07/26 12:30:05;;;;;;;;;;;;;;;;;;5024366;28;19917;-77
2022/07/26 12:32:53;;;;;;;;;;;;;;;;;;5026055;28;19913;-78
2022/07/26 12:35:40;;;;;;;;;;;;;;;;;;5015344;28;19924;-78
2022/07/26 12:38:26;;;;;;;;;;;;;;;;;;5015930;28;19920;-78
2022/07/26 12:41:12;;;;;;;;;;;;;;;;;;5020647;28;19927;-78
2022/07/26 12:43:59;;;;;;;;;;;;;;;;;;5028852;28;19938;-78
2022/07/26 12:46:46;;;;;;;;;;;;;;;;;;5026472;28;19919;-80
2022/07/26 12:49:32;;;;;;;;;;;;;;;;;;5028566;28;19917;-77
2022/07/26 12:52:19;;;;;;;;;;;;;;;;;;5026259;28;19909;-76
2022/07/26 12:55:05;;;;;;;;;;;;;;;;;;5025279;28;20378;-77
2022/07/26 12:57:52;;;;;;;;;;;;;;;;;;5024681;28;19918;-77
2022/07/26 13:00:38;;;;;;;;;;;;;;;;;;5026010;28;19921;-77
2022/07/26 13:03:25;;;;;;;;;;;;;;;;;;5027489;28;19920;-77
2022/07/26 13:06:11;;;;;;;;;;;;;;;;;;5024801;28;20297;-77
2022/07/26 13:08:58;;;;;;;;;;;;;;;;;;5023923;28;20404;-77
2022/07/26 13:11:44;;;;;;;;;;;;;;;;;;5020874;28;19909;-77
2022/07/26 13:14:30;;;;;;;;;;;;;;;;;;5018943;28;20413;-77
2022/07/26 13:17:17;;;;;;;;;;;;;;;;;;5025948;28;19920;-77
2022/07/26 13:20:03;;;;;;;;;;;;;;;;;;5020849;28;20404;-77
2022/07/26 13:22:50;;;;;;;;;;;;;;;;;;5024748;28;20015;-77
2022/07/26 13:25:37;;;;;;;;;;;;;;;;;;5027841;28;19949;-78
2022/07/26 13:28:23;;;;;;;;;;;;;;;;;;5024511;28;19913;-77
2022/07/26 13:31:11;;;;;;;;;;;;;;;;;;5022940;28;19913;-78
2022/07/26 13:33:57;;;;;;;;;;;;;;;;;;5019807;28;20622;-77
2022/07/26 13:36:44;;;;;;;;;;;;;;;;;;5020637;28;20299;-77
2022/07/26 13:39:30;;;;;;;;;;;;;;;;;;5022675;28;19925;-77
2022/07/26 13:42:18;;;;;;;;;;;;;;;;;;5023165;28;20393;-78
2022/07/26 13:45:04;;;;;;;;;;;;;;;;;;5015682;28;20318;-78
2022/07/26 13:47:51;;;;;;;;;;;;;;;;;;5021672;28;19919;-78
2022/07/26 13:50:37;;;;;;;;;;;;;;;;;;5025795;28;20685;-78
2022/07/26 13:53:24;;;;;;;;;;;;;;;;;;5022695;28;19913;-77
2022/07/26 13:56:10;;;;;;;;;;;;;;;;;;5026331;28;19944;-78
2022/07/26 13:58:56;;;;;;;;;;;;;;;;;;5025407;28;19924;-77
2022/07/26 14:01:43;;;;;;;;;;;;;;;;;;5019697;28;19921;-77
2022/07/26 14:04:29;;;;;;;;;;;;;;;;;;5022809;28;19914;-78
2022/07/26 14:07:16;;;;;;;;;;;;;;;;;;5025631;28;19917;-77
2022/07/26 14:10:02;;;;;;;;;;;;;;;;;;5021687;28;19917;-77
2022/07/26 14:12:49;;;;;;;;;;;;;;;;;;5012909;28;19909;-77
2022/07/26 14:15:35;;;;;;;;;;;;;;;;;;5019553;28;19924;-77
2022/07/26 14:18:22;;;;;;;;;;;;;;;;;;5020954;28;19913;-77
2022/07/26 14:21:08;;;;;;;;;;;;;;;;;;5016892;28;19945;-77
2022/07/26 14:23:57;;;;;;;;;;;;;;;;;;5015837;28;20553;-77
2022/07/26 14:26:44;;;;;;;;;;;;;;;;;;5020386;28;19913;-78
2022/07/26 14:29:30;;;;;;;;;;;;;;;;;;5016913;28;19928;-77
2022/07/26 14:32:17;;;;;;;;;;;;;;;;;;5021037;28;20277;-76
2022/07/26 14:35:03;;;;;;;;;;;;;;;;;;5023644;28;20369;-76
2022/07/26 14:37:50;;;;;;;;;;;;;;;;;;5026420;28;19919;-76
2022/07/26 14:40:36;;;;;;;;;;;;;;;;;;5019013;28;19929;-77
2022/07/26 14:43:23;;;;;;;;;;;;;;;;;;5019817;28;19920;-77
2022/07/26 14:46:09;;;;;;;;;;;;;;;;;;5024845;28;19936;-77
2022/07/26 14:48:56;;;;;;;;;;;;;;;;;;5027522;28;19913;-77
2022/07/26 14:51:42;;;;;;;;;;;;;;;;;;5011718;28;19920;-77
2022/07/26 14:54:29;;;;;;;;;;;;;;;;;;5011270;28;19920;-78
2022/07/26 14:57:15;;;;;;;;;;;;;;;;;;5019190;28;19909;-78
2022/07/26 15:00:02;;;;;;;;;;;;;;;;;;5024672;28;19917;-78
2022/07/26 15:02:48;;;;;;;;;;;;;;;;;;5022202;28;19913;-84
2022/07/26 15:05:35;;;;;;;;;;;;;;;;;;5024609;28;19927;-77
2022/07/26 15:08:21;;;;;;;;;;;;;;;;;;5022647;28;20000;-78
2022/07/26 15:11:08;;;;;;;;;;;;;;;;;;5020752;28;19924;-78
2022/07/26 15:13:54;;;;;;;;;;;;;;;;;;5024803;28;19925;-78
2022/07/26 15:16:40;;;;;;;;;;;;;;;;;;5019906;28;19917;-76
2022/07/26 15:19:27;;;;;;;;;;;;;;;;;;5023290;28;19929;-81
2022/07/26 15:22:13;;;;;;;;;;;;;;;;;;5022537;28;19913;-78
2022/07/26 15:25:00;;;;;;;;;;;;;;;;;;5021443;28;19918;-78
2022/07/26 15:27:49;;;;;;;;;;;;;;;;;;5023313;28;20027;-78
2022/07/26 15:30:36;;;;;;;;;;;;;;;;;;5020568;28;20007;-77
2022/07/26 15:33:22;;;;;;;;;;;;;;;;;;5021911;28;19916;-77
2022/07/26 15:36:09;;;;;;;;;;;;;;;;;;5018265;28;19966;-78
2022/07/26 15:38:55;;;;;;;;;;;;;;;;;;5025321;28;19931;-78
2022/07/26 15:41:42;;;;;;;;;;;;;;;;;;5026424;28;20311;-77
2022/07/26 15:44:28;;;;;;;;;;;;;;;;;;5023921;28;19913;-77
2022/07/26 15:47:15;;;;;;;;;;;;;;;;;;5025510;28;19921;-77
2022/07/26 15:50:03;;;;;;;;;;;;;;;;;;5023982;28;20460;-77
2022/07/26 15:52:49;;;;;;;;;;;;;;;;;;5024956;28;19950;-77
2022/07/26 15:55:36;;;;;;;;;;;;;;;;;;5026108;28;20285;-78
2022/07/26 15:58:22;;;;;;;;;;;;;;;;;;5024590;28;19916;-78
2022/07/26 16:01:08;;;;;;;;;;;;;;;;;;5029486;28;19925;-77
2022/07/26 16:03:55;;;;;;;;;;;;;;;;;;5027525;28;19916;-78
2022/07/26 16:06:41;;;;;;;;;;;;;;;;;;5029399;28;19913;-77
2022/07/26 16:09:28;;;;;;;;;;;;;;;;;;5026468;28;20423;-78
2022/07/26 16:12:14;;;;;;;;;;;;;;;;;;5028524;28;19916;-77
2022/07/26 16:15:01;;;;;;;;;;;;;;;;;;5025399;28;19921;-77
2022/07/26 16:17:48;;;;;;;;;;;;;;;;;;5023229;28;20012;-77
2022/07/26 16:20:34;;;;;;;;;;;;;;;;;;5026331;28;19932;-77
2022/07/26 16:23:20;;;;;;;;;;;;;;;;;;5029942;28;19917;-77
2022/07/26 16:26:07;;;;;;;;;;;;;;;;;;5023994;28;19928;-77
2022/07/26 16:28:53;;;;;;;;;;;;;;;;;;5024261;28;19920;-77
2022/07/26 16:31:40;;;;;;;;;;;;;;;;;;5025262;28;20502;-77
2022/07/26 16:34:28;;;;;;;;;;;;;;;;;;5018466;28;19921;-77
2022/07/26 16:37:15;;;;;;;;;;;;;;;;;;5024540;28;20281;-77
2022/07/26 16:40:01;;;;;;;;;;;;;;;;;;5026769;28;19921;-78
2022/07/26 16:42:48;;;;;;;;;;;;;;;;;;5021267;28;19951;-78
2022/07/26 16:45:34;;;;;;;;;;;;;;;;;;5012051;28;20005;-78
2022/07/26 16:48:21;;;;;;;;;;;;;;;;;;5031827;28;19909;-78
2022/07/26 16:51:07;;;;;;;;;;;;;;;;;;5019123;28;19932;-77
2022/07/26 16:53:54;;;;;;;;;;;;;;;;;;5026262;28;19913;-78
2022/07/26 16:56:40;;;;;;;;;;;;;;;;;;5020179;28;19909;-78
2022/07/26 16:59:29;;;;;;;;;;;;;;;;;;5033984;28;19922;-78
2022/07/26 17:02:16;;;;;;;;;;;;;;;;;;5015746;28;19909;-78
2022/07/26 17:05:02;;;;;;;;;;;;;;;;;;5039602;28;19920;-78
2022/07/26 17:07:49;;;;;;;;;;;;;;;;;;5045697;28;19919;-78
2022/07/26 17:10:35;;;;;;;;;;;;;;;;;;5043497;28;19913;-76
2022/07/26 17:13:22;;;;;;;;;;;;;;;;;;5049349;28;19916;-78
2022/07/26 17:16:08;;;;;;;;;;;;;;;;;;5048668;28;19920;-77
2022/07/26 17:18:55;;;;;;;;;;;;;;;;;;5048941;28;19923;-77
2022/07/26 17:21:41;;;;;;;;;;;;;;;;;;5044506;28;20402;-76
2022/07/26 17:24:28;;;;;;;;;;;;;;;;;;5046025;28;19916;-77
2022/07/26 17:27:14;;;;;;;;;;;;;;;;;;5048760;28;19924;-77
2022/07/26 17:30:01;;;;;;;;;;;;;;;;;;5030187;28;20126;-76
2022/07/26 17:32:47;;;;;;;;;;;;;;;;;;5036586;28;20687;-80
2022/07/26 17:35:34;;;;;;;;;;;;;;;;;;5035319;28;19917;-78
2022/07/26 17:38:20;;;;;;;;;;;;;;;;;;5038621;28;20074;-75
2022/07/26 17:41:08;;;;;;;;;;;;;;;;;;5039876;28;19932;-76
2022/07/26 17:43:54;;;;;;;;;;;;;;;;;;5045057;28;19920;-77
2022/07/26 17:46:41;;;;;;;;;;;;;;;;;;5030166;28;19917;-76
2022/07/26 17:49:27;;;;;;;;;;;;;;;;;;5040728;28;20339;-77
2022/07/26 17:52:14;;;;;;;;;;;;;;;;;;5042204;28;19917;-76
2022/07/26 17:55:01;;;;;;;;;;;;;;;;;;5044954;28;19964;-77
2022/07/26 17:57:48;;;;;;;;;;;;;;;;;;5030226;28;19928;-76
2022/07/26 18:00:35;;;;;;;;;;;;;;;;;;5046643;28;19932;-79
2022/07/26 18:03:22;;;;;;;;;;;;;;;;;;5049354;28;19920;-78
2022/07/26 18:06:09;;;;;;;;;;;;;;;;;;5035144;28;19916;-79
2022/07/26 18:08:55;;;;;;;;;;;;;;;;;;5049306;28;19920;-78
2022/07/26 18:11:42;;;;;;;;;;;;;;;;;;5047996;28;19915;-79
2022/07/26 18:14:28;;;;;;;;;;;;;;;;;;5047925;28;19936;-77
2022/07/26 18:17:15;;;;;;;;;;;;;;;;;;5046610;28;19930;-75
2022/07/26 18:20:02;;;;;;;;;;;;;;;;;;5045593;28;19921;-77
2022/07/26 18:22:49;;;;;;;;;;;;;;;;;;5044669;28;19916;-76
2022/07/26 18:25:35;;;;;;;;;;;;;;;;;;5030319;28;19923;-76
2022/07/26 18:28:22;;;;;;;;;;;;;;;;;;5045809;28;19913;-78
2022/07/26 18:31:08;;;;;;;;;;;;;;;;;;5039901;28;19924;-80
2022/07/26 18:33:55;;;;;;;;;;;;;;;;;;5038335;28;20167;-78
2022/07/26 18:36:42;;;;;;;;;;;;;;;;;;5044749;28;19912;-78
2022/07/26 18:39:28;;;;;;;;;;;;;;;;;;5029010;28;19953;-78
2022/07/26 18:42:15;;;;;;;;;;;;;;;;;;5044119;28;19909;-78
2022/07/26 18:45:01;;;;;;;;;;;;;;;;;;5047419;28;19913;-78
2022/07/26 18:47:48;;;;;;;;;;;;;;;;;;5032780;28;19917;-76
2022/07/26 18:50:34;;;;;;;;;;;;;;;;;;5044000;28;19917;-78
2022/07/26 18:53:21;;;;;;;;;;;;;;;;;;5049648;28;19909;-76
2022/07/26 18:56:07;;;;;;;;;;;;;;;;;;5048287;28;19924;-78
2022/07/26 18:58:54;;;;;;;;;;;;;;;;;;5045190;28;19913;-81
2022/07/26 19:01:40;;;;;;;;;;;;;;;;;;5045957;28;19923;-80
2022/07/26 19:04:27;;;;;;;;;;;;;;;;;;5050445;28;19912;-80